sensor_id;sensor_type;location;lat;lon;timestamp;pressure;altitude;pressure_sealevel;temperature;humidity
56568;BME280;42456;49.956;20.004;2023-02-28T00:01:33;99513.07;;;-1.24;70.80
56568;BME280;42456;49.956;20.004;2023-02-28T00:04:15;99514.30;;;-1.27;70.68
56568;BME280;42456;49.956;20.004;2023-02-28T00:06:42;99515.23;;;-1.30;70.83
56568;BME280;42456;49.956;20.004;2023-02-28T00:09:09;99517.11;;;-1.33;71.05
56568;BME280;42456;49.956;20.004;2023-02-28T00:11:36;99519.45;;;-1.35;70.98
56568;BME280;42456;49.956;20.004;2023-02-28T00:14:04;99521.27;;;-1.39;71.25
56568;BME280;42456;49.956;20.004;2023-02-28T00:16:31;99520.45;;;-1.41;71.29
56568;BME280;42456;49.956;20.004;2023-02-28T00:18:58;99528.42;;;-1.43;71.23
56568;BME280;42456;49.956;20.004;2023-02-28T00:21:25;99530.93;;;-1.45;71.06
56568;BME280;42456;49.956;20.004;2023-02-28T00:23:53;99531.08;;;-1.48;70.85
56568;BME280;42456;49.956;20.004;2023-02-28T00:26:20;99532.23;;;-1.50;70.85
56568;BME280;42456;49.956;20.004;2023-02-28T00:28:47;99533.92;;;-1.52;70.80
56568;BME280;42456;49.956;20.004;2023-02-28T00:31:14;99532.61;;;-1.53;70.75
56568;BME280;42456;49.956;20.004;2023-02-28T00:33:41;99533.93;;;-1.55;70.56
56568;BME280;42456;49.956;20.004;2023-02-28T00:36:10;99536.41;;;-1.55;70.61
56568;BME280;42456;49.956;20.004;2023-02-28T00:38:39;99536.00;;;-1.55;70.51
56568;BME280;42456;49.956;20.004;2023-02-28T00:41:07;99537.89;;;-1.53;70.02
56568;BME280;42456;49.956;20.004;2023-02-28T00:43:34;99538.88;;;-1.52;69.93
56568;BME280;42456;49.956;20.004;2023-02-28T00:46:02;99535.28;;;-1.50;69.57
56568;BME280;42456;49.956;20.004;2023-02-28T00:48:30;99531.21;;;-1.48;69.39
56568;BME280;42456;49.956;20.004;2023-02-28T00:50:57;99535.13;;;-1.48;69.39
56568;BME280;42456;49.956;20.004;2023-02-28T00:53:24;99535.83;;;-1.48;69.20
56568;BME280;42456;49.956;20.004;2023-02-28T00:55:51;99530.00;;;-1.49;69.22
56568;BME280;42456;49.956;20.004;2023-02-28T00:58:18;99532.86;;;-1.50;69.08
56568;BME280;42456;49.956;20.004;2023-02-28T01:00:46;99532.39;;;-1.52;69.12
56568;BME280;42456;49.956;20.004;2023-02-28T01:03:17;99534.37;;;-1.55;69.23
56568;BME280;42456;49.956;20.004;2023-02-28T01:05:45;99529.57;;;-1.58;69.19
56568;BME280;42456;49.956;20.004;2023-02-28T01:08:13;99529.35;;;-1.60;69.30
56568;BME280;42456;49.956;20.004;2023-02-28T01:10:40;99529.55;;;-1.62;69.23
56568;BME280;42456;49.956;20.004;2023-02-28T01:13:07;99532.14;;;-1.66;69.21
56568;BME280;42456;49.956;20.004;2023-02-28T01:15:34;99529.45;;;-1.69;68.84
56568;BME280;42456;49.956;20.004;2023-02-28T01:18:01;99526.23;;;-1.72;69.18
56568;BME280;42456;49.956;20.004;2023-02-28T01:20:28;99532.33;;;-1.75;69.19
56568;BME280;42456;49.956;20.004;2023-02-28T01:22:54;99532.11;;;-1.79;69.16
56568;BME280;42456;49.956;20.004;2023-02-28T01:25:21;99533.83;;;-1.83;69.49
56568;BME280;42456;49.956;20.004;2023-02-28T01:27:49;99533.25;;;-1.87;69.70
56568;BME280;42456;49.956;20.004;2023-02-28T01:30:15;99533.28;;;-1.91;70.18
56568;BME280;42456;49.956;20.004;2023-02-28T01:32:43;99532.07;;;-1.95;70.26
56568;BME280;42456;49.956;20.004;2023-02-28T01:35:10;99531.94;;;-1.99;71.20
56568;BME280;42456;49.956;20.004;2023-02-28T01:37:37;99530.15;;;-2.02;71.43
56568;BME280;42456;49.956;20.004;2023-02-28T01:40:04;99531.73;;;-2.06;71.64
56568;BME280;42456;49.956;20.004;2023-02-28T01:42:31;99528.76;;;-2.09;71.65
56568;BME280;42456;49.956;20.004;2023-02-28T01:47:36;99526.31;;;-2.17;71.91
56568;BME280;42456;49.956;20.004;2023-02-28T01:50:09;99525.14;;;-2.21;71.70
56568;BME280;42456;49.956;20.004;2023-02-28T01:52:38;99519.77;;;-2.25;71.46
56568;BME280;42456;49.956;20.004;2023-02-28T01:55:06;99515.95;;;-2.28;71.67
56568;BME280;42456;49.956;20.004;2023-02-28T01:57:41;99518.44;;;-2.29;71.94
56568;BME280;42456;49.956;20.004;2023-02-28T02:00:15;99516.79;;;-2.30;72.31
56568;BME280;42456;49.956;20.004;2023-02-28T02:02:45;99512.09;;;-2.32;72.03
56568;BME280;42456;49.956;20.004;2023-02-28T02:05:23;99515.19;;;-2.33;72.40
56568;BME280;42456;49.956;20.004;2023-02-28T02:07:54;99517.40;;;-2.35;72.63
56568;BME280;42456;49.956;20.004;2023-02-28T02:10:27;99518.58;;;-2.38;72.46
56568;BME280;42456;49.956;20.004;2023-02-28T02:13:16;99519.36;;;-2.41;72.74
56568;BME280;42456;49.956;20.004;2023-02-28T02:32:28;99504.63;;;-2.83;73.50
56568;BME280;42456;49.956;20.004;2023-02-28T02:35:15;99506.21;;;-2.89;73.29
56568;BME280;42456;49.956;20.004;2023-02-28T02:40:46;99510.63;;;-3.01;73.37
56568;BME280;42456;49.956;20.004;2023-02-28T02:46:05;99503.47;;;-3.17;73.39
56568;BME280;42456;49.956;20.004;2023-02-28T02:48:36;99499.05;;;-3.24;73.93
56568;BME280;42456;49.956;20.004;2023-02-28T02:51:16;99495.89;;;-3.31;74.00
56568;BME280;42456;49.956;20.004;2023-02-28T02:53:49;99496.95;;;-3.39;74.10
56568;BME280;42456;49.956;20.004;2023-02-28T02:56:23;99493.70;;;-3.46;74.03
56568;BME280;42456;49.956;20.004;2023-02-28T02:58:53;99496.80;;;-3.53;73.95
56568;BME280;42456;49.956;20.004;2023-02-28T03:01:25;99494.88;;;-3.60;74.21
56568;BME280;42456;49.956;20.004;2023-02-28T03:03:59;99492.08;;;-3.66;74.72
56568;BME280;42456;49.956;20.004;2023-02-28T03:06:28;99495.48;;;-3.70;74.38
56568;BME280;42456;49.956;20.004;2023-02-28T03:08:55;99495.34;;;-3.74;74.47
56568;BME280;42456;49.956;20.004;2023-02-28T03:11:22;99499.20;;;-3.78;74.71
56568;BME280;42456;49.956;20.004;2023-02-28T03:14:07;99499.61;;;-3.80;74.54
56568;BME280;42456;49.956;20.004;2023-02-28T03:25:07;99504.84;;;-3.87;75.07
56568;BME280;42456;49.956;20.004;2023-02-28T03:27:41;99507.59;;;-3.88;75.01
56568;BME280;42456;49.956;20.004;2023-02-28T03:30:23;99512.08;;;-3.89;75.55
56568;BME280;42456;49.956;20.004;2023-02-28T03:33:12;99512.49;;;-3.90;75.40
56568;BME280;42456;49.956;20.004;2023-02-28T03:36:03;99516.38;;;-3.91;75.82
56568;BME280;42456;49.956;20.004;2023-02-28T03:38:46;99515.29;;;-3.93;75.66
56568;BME280;42456;49.956;20.004;2023-02-28T03:41:40;99516.79;;;-3.97;75.67
56568;BME280;42456;49.956;20.004;2023-02-28T03:44:56;99523.14;;;-4.01;75.77
56568;BME280;42456;49.956;20.004;2023-02-28T03:47:14;99521.09;;;-4.06;75.74
56568;BME280;42456;49.956;20.004;2023-02-28T03:52:27;99526.36;;;-4.17;76.04
56568;BME280;42456;49.956;20.004;2023-02-28T03:54:57;99525.96;;;-4.22;76.41
56568;BME280;42456;49.956;20.004;2023-02-28T03:57:39;99527.86;;;-4.27;76.05
56568;BME280;42456;49.956;20.004;2023-02-28T04:00:15;99527.21;;;-4.32;76.26
56568;BME280;42456;49.956;20.004;2023-02-28T04:02:43;99531.14;;;-4.38;76.33
56568;BME280;42456;49.956;20.004;2023-02-28T04:05:10;99527.55;;;-4.45;76.40
56568;BME280;42456;49.956;20.004;2023-02-28T04:07:37;99533.52;;;-4.50;76.58
56568;BME280;42456;49.956;20.004;2023-02-28T04:10:05;99538.53;;;-4.57;76.54
56568;BME280;42456;49.956;20.004;2023-02-28T04:12:32;99540.70;;;-4.62;76.78
56568;BME280;42456;49.956;20.004;2023-02-28T04:14:58;99536.73;;;-4.69;76.87
56568;BME280;42456;49.956;20.004;2023-02-28T04:17:25;99533.47;;;-4.75;77.21
56568;BME280;42456;49.956;20.004;2023-02-28T04:19:52;99533.77;;;-4.81;77.24
56568;BME280;42456;49.956;20.004;2023-02-28T04:22:20;99538.85;;;-4.86;77.12
56568;BME280;42456;49.956;20.004;2023-02-28T04:24:47;99540.82;;;-4.92;77.40
56568;BME280;42456;49.956;20.004;2023-02-28T04:27:14;99538.84;;;-4.97;77.44
56568;BME280;42456;49.956;20.004;2023-02-28T04:29:42;99540.80;;;-5.01;77.56
56568;BME280;42456;49.956;20.004;2023-02-28T04:32:11;99545.27;;;-5.05;77.66
56568;BME280;42456;49.956;20.004;2023-02-28T04:34:38;99548.90;;;-5.05;77.79
56568;BME280;42456;49.956;20.004;2023-02-28T04:37:06;99550.50;;;-5.07;77.86
56568;BME280;42456;49.956;20.004;2023-02-28T04:39:40;99547.11;;;-5.08;77.92
56568;BME280;42456;49.956;20.004;2023-02-28T04:42:07;99547.96;;;-5.08;77.97
56568;BME280;42456;49.956;20.004;2023-02-28T04:44:34;99547.61;;;-5.06;78.24
56568;BME280;42456;49.956;20.004;2023-02-28T04:47:01;99549.95;;;-5.06;78.17
56568;BME280;42456;49.956;20.004;2023-02-28T04:49:28;99551.64;;;-5.06;78.08
56568;BME280;42456;49.956;20.004;2023-02-28T04:51:55;99550.83;;;-5.07;78.18
56568;BME280;42456;49.956;20.004;2023-02-28T04:54:22;99551.48;;;-5.08;78.13
56568;BME280;42456;49.956;20.004;2023-02-28T04:56:49;99551.44;;;-5.09;78.17
56568;BME280;42456;49.956;20.004;2023-02-28T04:59:16;99550.02;;;-5.10;78.24
56568;BME280;42456;49.956;20.004;2023-02-28T05:01:47;99551.10;;;-5.12;78.33
56568;BME280;42456;49.956;20.004;2023-02-28T05:04:14;99556.08;;;-5.13;78.45
56568;BME280;42456;49.956;20.004;2023-02-28T05:06:42;99558.01;;;-5.16;78.49
56568;BME280;42456;49.956;20.004;2023-02-28T05:09:09;99559.40;;;-5.19;78.63
56568;BME280;42456;49.956;20.004;2023-02-28T05:11:39;99556.56;;;-5.22;78.64
56568;BME280;42456;49.956;20.004;2023-02-28T05:14:11;99560.10;;;-5.26;78.62
56568;BME280;42456;49.956;20.004;2023-02-28T05:16:38;99557.83;;;-5.30;78.80
56568;BME280;42456;49.956;20.004;2023-02-28T05:19:06;99561.29;;;-5.33;78.77
56568;BME280;42456;49.956;20.004;2023-02-28T05:21:38;99564.61;;;-5.37;78.83
56568;BME280;42456;49.956;20.004;2023-02-28T05:24:09;99566.84;;;-5.43;78.83
56568;BME280;42456;49.956;20.004;2023-02-28T05:26:41;99566.70;;;-5.47;78.90
56568;BME280;42456;49.956;20.004;2023-02-28T05:29:10;99572.05;;;-5.50;78.87
56568;BME280;42456;49.956;20.004;2023-02-28T05:31:37;99572.80;;;-5.53;79.23
56568;BME280;42456;49.956;20.004;2023-02-28T05:34:04;99573.11;;;-5.56;79.21
56568;BME280;42456;49.956;20.004;2023-02-28T05:36:32;99577.54;;;-5.58;79.24
56568;BME280;42456;49.956;20.004;2023-02-28T05:38:59;99582.13;;;-5.59;79.41
56568;BME280;42456;49.956;20.004;2023-02-28T05:41:26;99587.34;;;-5.62;79.49
56568;BME280;42456;49.956;20.004;2023-02-28T05:43:54;99589.48;;;-5.63;79.56
56568;BME280;42456;49.956;20.004;2023-02-28T05:46:21;99592.21;;;-5.64;79.57
56568;BME280;42456;49.956;20.004;2023-02-28T05:48:48;99596.81;;;-5.64;79.56
56568;BME280;42456;49.956;20.004;2023-02-28T05:51:16;99598.02;;;-5.63;79.77
56568;BME280;42456;49.956;20.004;2023-02-28T05:53:43;99596.73;;;-5.63;79.81
56568;BME280;42456;49.956;20.004;2023-02-28T05:56:11;99596.98;;;-5.61;79.98
56568;BME280;42456;49.956;20.004;2023-02-28T05:58:38;99598.87;;;-5.58;80.02
56568;BME280;42456;49.956;20.004;2023-02-28T06:01:30;99600.96;;;-5.55;79.98
56568;BME280;42456;49.956;20.004;2023-02-28T06:03:59;99603.58;;;-5.51;80.02
56568;BME280;42456;49.956;20.004;2023-02-28T06:06:27;99606.15;;;-5.46;80.19
56568;BME280;42456;49.956;20.004;2023-02-28T06:08:54;99604.75;;;-5.42;80.18
56568;BME280;42456;49.956;20.004;2023-02-28T06:11:21;99609.22;;;-5.36;80.18
56568;BME280;42456;49.956;20.004;2023-02-28T06:13:56;99609.48;;;-5.32;80.24
56568;BME280;42456;49.956;20.004;2023-02-28T06:16:24;99616.77;;;-5.26;80.25
56568;BME280;42456;49.956;20.004;2023-02-28T06:18:51;99619.02;;;-5.20;80.41
56568;BME280;42456;49.956;20.004;2023-02-28T06:21:19;99622.72;;;-5.14;80.31
56568;BME280;42456;49.956;20.004;2023-02-28T06:23:45;99620.35;;;-5.06;80.50
56568;BME280;42456;49.956;20.004;2023-02-28T06:26:13;99625.50;;;-4.99;80.47
56568;BME280;42456;49.956;20.004;2023-02-28T06:28:40;99625.45;;;-4.93;80.49
56568;BME280;42456;49.956;20.004;2023-02-28T06:31:12;99627.58;;;-4.88;80.49
56568;BME280;42456;49.956;20.004;2023-02-28T06:33:40;99629.11;;;-4.82;80.51
56568;BME280;42456;49.956;20.004;2023-02-28T06:36:09;99627.28;;;-4.78;80.57
56568;BME280;42456;49.956;20.004;2023-02-28T06:38:36;99624.27;;;-4.73;80.44
56568;BME280;42456;49.956;20.004;2023-02-28T06:41:04;99626.17;;;-4.69;80.57
56568;BME280;42456;49.956;20.004;2023-02-28T06:43:35;99624.16;;;-4.66;80.45
56568;BME280;42456;49.956;20.004;2023-02-28T06:46:05;99623.27;;;-4.63;80.67
56568;BME280;42456;49.956;20.004;2023-02-28T06:48:33;99622.02;;;-4.61;80.45
56568;BME280;42456;49.956;20.004;2023-02-28T06:51:07;99627.57;;;-4.58;80.44
56568;BME280;42456;49.956;20.004;2023-02-28T06:53:34;99630.52;;;-4.55;80.35
56568;BME280;42456;49.956;20.004;2023-02-28T06:56:11;99631.79;;;-4.51;80.53
56568;BME280;42456;49.956;20.004;2023-02-28T06:58:39;99631.31;;;-4.47;80.45
56568;BME280;42456;49.956;20.004;2023-02-28T07:01:06;99633.13;;;-4.44;80.80
56568;BME280;42456;49.956;20.004;2023-02-28T07:03:35;99637.58;;;-4.41;80.53
56568;BME280;42456;49.956;20.004;2023-02-28T07:06:02;99637.91;;;-4.36;80.46
56568;BME280;42456;49.956;20.004;2023-02-28T07:08:30;99639.85;;;-4.31;80.60
56568;BME280;42456;49.956;20.004;2023-02-28T07:10:58;99644.42;;;-4.26;80.62
56568;BME280;42456;49.956;20.004;2023-02-28T07:13:25;99648.35;;;-4.19;80.90
56568;BME280;42456;49.956;20.004;2023-02-28T07:16:00;99648.88;;;-4.11;80.77
56568;BME280;42456;49.956;20.004;2023-02-28T07:18:28;99650.31;;;-4.00;80.72
56568;BME280;42456;49.956;20.004;2023-02-28T07:20:55;99650.11;;;-3.88;81.08
56568;BME280;42456;49.956;20.004;2023-02-28T07:23:22;99651.88;;;-3.73;80.76
56568;BME280;42456;49.956;20.004;2023-02-28T07:25:50;99655.59;;;-3.56;81.25
56568;BME280;42456;49.956;20.004;2023-02-28T07:28:17;99656.93;;;-3.39;81.03
56568;BME280;42456;49.956;20.004;2023-02-28T07:30:44;99657.46;;;-3.24;80.63
56568;BME280;42456;49.956;20.004;2023-02-28T07:33:11;99659.88;;;-3.10;80.62
56568;BME280;42456;49.956;20.004;2023-02-28T07:35:38;99656.53;;;-2.98;80.31
56568;BME280;42456;49.956;20.004;2023-02-28T07:38:05;99660.20;;;-2.84;80.22
56568;BME280;42456;49.956;20.004;2023-02-28T07:40:34;99655.80;;;-2.71;79.81
56568;BME280;42456;49.956;20.004;2023-02-28T07:43:03;99655.52;;;-2.56;79.66
56568;BME280;42456;49.956;20.004;2023-02-28T07:45:30;99658.63;;;-2.39;79.66
56568;BME280;42456;49.956;20.004;2023-02-28T07:48:01;99659.23;;;-2.25;78.82
56568;BME280;42456;49.956;20.004;2023-02-28T07:50:28;99662.46;;;-2.12;77.99
56568;BME280;42456;49.956;20.004;2023-02-28T07:52:58;99660.27;;;-1.99;78.07
56568;BME280;42456;49.956;20.004;2023-02-28T07:55:25;99660.23;;;-1.85;77.55
56568;BME280;42456;49.956;20.004;2023-02-28T07:57:52;99656.98;;;-1.71;77.39
56568;BME280;42456;49.956;20.004;2023-02-28T08:00:20;99659.48;;;-1.59;76.38
56568;BME280;42456;49.956;20.004;2023-02-28T08:02:47;99655.39;;;-1.47;75.93
56568;BME280;42456;49.956;20.004;2023-02-28T08:05:14;99653.88;;;-1.37;75.61
56568;BME280;42456;49.956;20.004;2023-02-28T08:07:41;99652.23;;;-1.24;75.39
56568;BME280;42456;49.956;20.004;2023-02-28T08:10:08;99655.09;;;-1.10;74.82
56568;BME280;42456;49.956;20.004;2023-02-28T08:12:36;99652.61;;;-0.96;74.54
56568;BME280;42456;49.956;20.004;2023-02-28T08:15:03;99656.36;;;-0.83;73.25
56568;BME280;42456;49.956;20.004;2023-02-28T08:17:30;99654.87;;;-0.74;72.57
56568;BME280;42456;49.956;20.004;2023-02-28T08:20:00;99655.45;;;-0.63;72.50
56568;BME280;42456;49.956;20.004;2023-02-28T08:22:27;99656.53;;;-0.48;71.71
56568;BME280;42456;49.956;20.004;2023-02-28T08:24:54;99660.21;;;-0.35;70.35
56568;BME280;42456;49.956;20.004;2023-02-28T08:27:20;99655.96;;;-0.26;68.87
56568;BME280;42456;49.956;20.004;2023-02-28T08:29:47;99656.03;;;-0.19;67.97
56568;BME280;42456;49.956;20.004;2023-02-28T08:32:14;99657.67;;;-0.09;67.62
56568;BME280;42456;49.956;20.004;2023-02-28T08:34:55;99657.77;;;0.04;66.87
56568;BME280;42456;49.956;20.004;2023-02-28T08:37:21;99651.50;;;0.20;66.54
56568;BME280;42456;49.956;20.004;2023-02-28T08:39:48;99652.61;;;0.40;66.52
56568;BME280;42456;49.956;20.004;2023-02-28T08:42:15;99650.45;;;0.57;64.67
56568;BME280;42456;49.956;20.004;2023-02-28T08:44:42;99647.91;;;0.70;64.27
56568;BME280;42456;49.956;20.004;2023-02-28T08:47:09;99655.42;;;0.89;65.00
56568;BME280;42456;49.956;20.004;2023-02-28T08:49:36;99656.02;;;1.02;63.40
56568;BME280;42456;49.956;20.004;2023-02-28T08:52:04;99662.70;;;1.13;62.77
56568;BME280;42456;49.956;20.004;2023-02-28T08:54:31;99658.14;;;1.18;61.75
56568;BME280;42456;49.956;20.004;2023-02-28T08:56:57;99657.69;;;1.24;62.14
56568;BME280;42456;49.956;20.004;2023-02-28T08:59:24;99657.55;;;1.27;61.77
56568;BME280;42456;49.956;20.004;2023-02-28T09:01:51;99657.27;;;1.27;60.94
56568;BME280;42456;49.956;20.004;2023-02-28T09:04:18;99657.15;;;1.23;60.42
56568;BME280;42456;49.956;20.004;2023-02-28T09:06:46;99663.40;;;1.21;59.85
56568;BME280;42456;49.956;20.004;2023-02-28T09:09:15;99654.02;;;1.16;60.16
56568;BME280;42456;49.956;20.004;2023-02-28T09:11:42;99658.60;;;1.17;60.01
56568;BME280;42456;49.956;20.004;2023-02-28T09:14:09;99661.16;;;1.18;59.52
56568;BME280;42456;49.956;20.004;2023-02-28T09:16:36;99655.20;;;1.11;59.01
56568;BME280;42456;49.956;20.004;2023-02-28T09:19:04;99648.05;;;1.04;58.48
56568;BME280;42456;49.956;20.004;2023-02-28T09:21:31;99649.63;;;0.96;58.92
56568;BME280;42456;49.956;20.004;2023-02-28T09:23:58;99651.28;;;0.86;58.20
56568;BME280;42456;49.956;20.004;2023-02-28T09:26:27;99653.23;;;0.79;58.86
56568;BME280;42456;49.956;20.004;2023-02-28T09:29:08;99655.27;;;0.73;58.37
56568;BME280;42456;49.956;20.004;2023-02-28T09:31:35;99654.79;;;0.68;58.80
56568;BME280;42456;49.956;20.004;2023-02-28T09:34:03;99654.99;;;0.68;59.02
56568;BME280;42456;49.956;20.004;2023-02-28T09:36:30;99646.98;;;0.67;58.45
56568;BME280;42456;49.956;20.004;2023-02-28T09:39:09;99650.70;;;0.71;58.82
56568;BME280;42456;49.956;20.004;2023-02-28T09:41:42;99652.77;;;0.70;58.71
56568;BME280;42456;49.956;20.004;2023-02-28T09:49:45;99661.21;;;0.69;57.93
56568;BME280;42456;49.956;20.004;2023-02-28T09:52:17;99652.39;;;0.68;58.52
56568;BME280;42456;49.956;20.004;2023-02-28T09:54:46;99657.62;;;0.71;59.06
56568;BME280;42456;49.956;20.004;2023-02-28T10:03:00;99659.58;;;0.69;58.27
56568;BME280;42456;49.956;20.004;2023-02-28T10:05:47;99663.60;;;0.71;58.64
56568;BME280;42456;49.956;20.004;2023-02-28T10:08:21;99665.16;;;0.70;58.27
56568;BME280;42456;49.956;20.004;2023-02-28T10:10:55;99660.66;;;0.68;58.95
56568;BME280;42456;49.956;20.004;2023-02-28T10:16:24;99657.77;;;0.74;58.94
56568;BME280;42456;49.956;20.004;2023-02-28T10:18:56;99655.16;;;0.75;59.32
56568;BME280;42456;49.956;20.004;2023-02-28T10:21:31;99650.78;;;0.76;59.38
56568;BME280;42456;49.956;20.004;2023-02-28T10:26:50;99642.55;;;0.72;58.69
56568;BME280;42456;49.956;20.004;2023-02-28T10:29:19;99642.30;;;0.69;58.86
56568;BME280;42456;49.956;20.004;2023-02-28T10:31:46;99643.73;;;0.69;58.32
56568;BME280;42456;49.956;20.004;2023-02-28T10:34:13;99648.43;;;0.68;58.04
56568;BME280;42456;49.956;20.004;2023-02-28T10:36:41;99647.17;;;0.66;58.49
56568;BME280;42456;49.956;20.004;2023-02-28T10:39:35;99638.35;;;0.65;58.39
56568;BME280;42456;49.956;20.004;2023-02-28T10:42:19;99637.39;;;0.69;58.66
56568;BME280;42456;49.956;20.004;2023-02-28T10:44:46;99630.41;;;0.69;58.30
56568;BME280;42456;49.956;20.004;2023-02-28T10:47:17;99627.73;;;0.71;59.01
56568;BME280;42456;49.956;20.004;2023-02-28T10:49:49;99618.66;;;0.72;59.10
56568;BME280;42456;49.956;20.004;2023-02-28T10:52:36;99627.63;;;0.75;58.85
56568;BME280;42456;49.956;20.004;2023-02-28T10:55:33;99628.00;;;0.78;58.19
56568;BME280;42456;49.956;20.004;2023-02-28T10:58:00;99618.70;;;0.79;57.90
56568;BME280;42456;49.956;20.004;2023-02-28T11:00:34;99617.63;;;0.80;57.94
56568;BME280;42456;49.956;20.004;2023-02-28T11:03:05;99615.15;;;0.83;58.19
56568;BME280;42456;49.956;20.004;2023-02-28T11:05:48;99606.09;;;0.88;58.22
56568;BME280;42456;49.956;20.004;2023-02-28T11:08:17;99600.01;;;0.91;58.51
56568;BME280;42456;49.956;20.004;2023-02-28T11:11:05;99599.08;;;0.95;58.52
56568;BME280;42456;49.956;20.004;2023-02-28T11:13:35;99603.58;;;1.00;58.85
56568;BME280;42456;49.956;20.004;2023-02-28T11:16:04;99602.16;;;1.01;58.54
56568;BME280;42456;49.956;20.004;2023-02-28T11:21:02;99594.36;;;1.00;58.02
56568;BME280;42456;49.956;20.004;2023-02-28T11:23:31;99594.86;;;0.99;58.29
56568;BME280;42456;49.956;20.004;2023-02-28T11:26:03;99585.94;;;1.03;58.53
56568;BME280;42456;49.956;20.004;2023-02-28T11:28:34;99583.90;;;1.07;58.06
56568;BME280;42456;49.956;20.004;2023-02-28T11:33:48;99580.35;;;1.10;59.24
56568;BME280;42456;49.956;20.004;2023-02-28T11:36:26;99575.23;;;1.14;59.11
56568;BME280;42456;49.956;20.004;2023-02-28T11:39:15;99574.39;;;1.20;59.20
56568;BME280;42456;49.956;20.004;2023-02-28T11:47:31;99571.44;;;1.28;58.44
56568;BME280;42456;49.956;20.004;2023-02-28T11:52:56;99566.52;;;1.29;58.74
56568;BME280;42456;49.956;20.004;2023-02-28T11:55:37;99566.02;;;1.33;58.71
56568;BME280;42456;49.956;20.004;2023-02-28T12:01:15;99564.95;;;1.45;58.72
56568;BME280;42456;49.956;20.004;2023-02-28T12:03:58;99563.95;;;1.44;58.21
56568;BME280;42456;49.956;20.004;2023-02-28T12:12:27;99552.41;;;1.40;57.61
56568;BME280;42456;49.956;20.004;2023-02-28T12:23:18;99562.77;;;1.54;59.01
56568;BME280;42456;49.956;20.004;2023-02-28T12:28:23;99560.52;;;1.67;58.76
56568;BME280;42456;49.956;20.004;2023-02-28T12:31:11;99559.28;;;1.72;58.43
56568;BME280;42456;49.956;20.004;2023-02-28T12:33:48;99561.16;;;1.74;57.99
56568;BME280;42456;49.956;20.004;2023-02-28T12:36:20;99557.23;;;1.74;57.55
56568;BME280;42456;49.956;20.004;2023-02-28T12:38:56;99556.62;;;1.75;57.87
56568;BME280;42456;49.956;20.004;2023-02-28T12:47:16;99561.04;;;1.86;57.77
56568;BME280;42456;49.956;20.004;2023-02-28T12:49:53;99562.44;;;1.87;57.27
56568;BME280;42456;49.956;20.004;2023-02-28T12:58:05;99558.23;;;1.92;57.24
56568;BME280;42456;49.956;20.004;2023-02-28T13:00:37;99554.27;;;1.94;57.19
56568;BME280;42456;49.956;20.004;2023-02-28T13:03:26;99550.55;;;1.96;57.28
56568;BME280;42456;49.956;20.004;2023-02-28T13:11:29;99543.45;;;1.97;55.78
56568;BME280;42456;49.956;20.004;2023-02-28T13:14:00;99547.68;;;1.97;56.86
56568;BME280;42456;49.956;20.004;2023-02-28T13:16:27;99547.06;;;1.95;56.70
56568;BME280;42456;49.956;20.004;2023-02-28T13:19:09;99545.10;;;1.93;57.23
56568;BME280;42456;49.956;20.004;2023-02-28T13:21:43;99537.17;;;1.92;57.26
56568;BME280;42456;49.956;20.004;2023-02-28T13:24:49;99533.27;;;1.91;57.49
56568;BME280;42456;49.956;20.004;2023-02-28T13:29:44;99532.64;;;1.88;57.23
56568;BME280;42456;49.956;20.004;2023-02-28T13:39:56;99525.65;;;1.86;58.14
56568;BME280;42456;49.956;20.004;2023-02-28T13:42:36;99523.23;;;1.87;57.86
56568;BME280;42456;49.956;20.004;2023-02-28T13:47:38;99526.31;;;1.87;57.91
56568;BME280;42456;49.956;20.004;2023-02-28T13:50:22;99520.58;;;1.86;58.35
56568;BME280;42456;49.956;20.004;2023-02-28T14:04:10;99511.44;;;1.93;58.46
56568;BME280;42456;49.956;20.004;2023-02-28T14:06:48;99501.66;;;1.89;58.02
56568;BME280;42456;49.956;20.004;2023-02-28T14:11:57;99500.36;;;1.76;57.62
56568;BME280;42456;49.956;20.004;2023-02-28T14:17:15;99490.91;;;1.65;57.79
56568;BME280;42456;49.956;20.004;2023-02-28T14:19:45;99491.81;;;1.65;58.75
56568;BME280;42456;49.956;20.004;2023-02-28T14:27:24;99490.95;;;1.71;58.91
56568;BME280;42456;49.956;20.004;2023-02-28T14:30:24;99489.80;;;1.72;58.73
56568;BME280;42456;49.956;20.004;2023-02-28T14:38:21;99494.20;;;1.73;58.86
56568;BME280;42456;49.956;20.004;2023-02-28T14:40:56;99494.96;;;1.70;58.79
56568;BME280;42456;49.956;20.004;2023-02-28T14:43:28;99497.04;;;1.67;58.86
56568;BME280;42456;49.956;20.004;2023-02-28T14:45:59;99495.54;;;1.63;59.31
56568;BME280;42456;49.956;20.004;2023-02-28T14:48:27;99505.08;;;1.60;59.46
56568;BME280;42456;49.956;20.004;2023-02-28T14:50:59;99497.59;;;1.56;59.56
56568;BME280;42456;49.956;20.004;2023-02-28T14:53:35;99496.41;;;1.52;58.82
56568;BME280;42456;49.956;20.004;2023-02-28T14:56:03;99495.77;;;1.48;59.24
56568;BME280;42456;49.956;20.004;2023-02-28T14:58:32;99493.54;;;1.45;59.31
56568;BME280;42456;49.956;20.004;2023-02-28T15:01:02;99500.38;;;1.42;59.49
56568;BME280;42456;49.956;20.004;2023-02-28T15:06:05;99499.84;;;1.35;59.78
56568;BME280;42456;49.956;20.004;2023-02-28T15:08:33;99497.99;;;1.32;59.86
56568;BME280;42456;49.956;20.004;2023-02-28T15:11:18;99501.05;;;1.29;60.28
56568;BME280;42456;49.956;20.004;2023-02-28T15:13:50;99499.69;;;1.26;59.75
56568;BME280;42456;49.956;20.004;2023-02-28T15:16:20;99502.40;;;1.23;60.45
56568;BME280;42456;49.956;20.004;2023-02-28T15:21:18;99496.48;;;1.12;60.21
56568;BME280;42456;49.956;20.004;2023-02-28T15:23:52;99496.33;;;1.07;60.49
56568;BME280;42456;49.956;20.004;2023-02-28T15:26:23;99497.13;;;1.02;60.94
56568;BME280;42456;49.956;20.004;2023-02-28T15:28:57;99492.98;;;0.98;61.17
56568;BME280;42456;49.956;20.004;2023-02-28T15:31:31;99496.48;;;0.96;61.40
56568;BME280;42456;49.956;20.004;2023-02-28T15:34:25;99493.96;;;0.94;61.53
56568;BME280;42456;49.956;20.004;2023-02-28T15:39:47;99490.73;;;0.86;61.50
56568;BME280;42456;49.956;20.004;2023-02-28T15:42:23;99495.67;;;0.81;61.22
56568;BME280;42456;49.956;20.004;2023-02-28T15:44:50;99489.80;;;0.76;61.73
56568;BME280;42456;49.956;20.004;2023-02-28T15:47:22;99498.46;;;0.72;61.66